Time;durP1;ratioP1;P1;durP2;ratioP2;P2;SDS_P1;SDS_P2;PMS_P1;PMS_P2;Temp;Humidity;BMP_temperature;BMP_pressure;BME280_temperature;BME280_humidity;BME280_pressure;Samples;Min_cycle;Max_cycle;Signal;HPM_P1;HPM_P2
2020/12/21 00:01:16;;;;;;;10.60;9.50;;;5.60;99.90;;;;;;5101292;27;20205;-83
2020/12/21 00:03:43;;;;;;;10.40;9.30;;;5.60;99.90;;;;;;5090430;28;20287;-82
2020/12/21 00:06:12;;;;;;;9.67;8.77;;;5.60;99.90;;;;;;5089841;28;20647;-81
2020/12/21 00:08:38;;;;;;;13.17;11.40;;;5.60;99.90;;;;;;5089744;28;20313;-82
2020/12/21 00:11:05;;;;;;;19.60;17.53;;;5.50;99.90;;;;;;5089639;28;20211;-81
2020/12/21 00:13:32;;;;;;;25.13;20.20;;;5.60;99.90;;;;;;5089072;28;20313;-81
2020/12/21 00:15:59;;;;;;;59.37;42.73;;;5.50;99.90;;;;;;5089800;28;20209;-81
2020/12/21 00:18:25;;;;;;;46.50;33.30;;;5.50;99.90;;;;;;5089839;28;20207;-81
2020/12/21 00:20:52;;;;;;;43.10;33.90;;;5.50;99.90;;;;;;5089551;28;20344;-81
2020/12/21 00:23:18;;;;;;;24.90;22.20;;;5.50;99.90;;;;;;5089015;28;20262;-81
2020/12/21 00:25:44;;;;;;;14.30;12.90;;;5.50;99.90;;;;;;5089260;28;20199;-81
2020/12/21 00:28:11;;;;;;;11.47;9.57;;;5.50;99.90;;;;;;5089312;28;20301;-81
2020/12/21 00:30:38;;;;;;;10.70;9.13;;;5.50;99.90;;;;;;5089215;28;20237;-81
2020/12/21 00:33:05;;;;;;;10.27;9.27;;;5.50;99.90;;;;;;5089637;28;20207;-81
2020/12/21 00:35:31;;;;;;;10.37;9.37;;;5.50;99.90;;;;;;5093012;28;20212;-80
2020/12/21 00:37:59;;;;;;;10.63;9.27;;;5.50;99.90;;;;;;5109653;28;20293;-81
2020/12/21 00:40:26;;;;;;;12.03;9.93;;;5.50;99.90;;;;;;5109820;28;20701;-81
2020/12/21 00:42:52;;;;;;;11.33;10.13;;;5.50;99.90;;;;;;5109646;28;20201;-80
2020/12/21 00:45:19;;;;;;;10.37;9.33;;;5.50;99.90;;;;;;5109619;28;20386;-80
2020/12/21 00:47:46;;;;;;;12.40;9.60;;;5.50;99.90;;;;;;5109740;28;20237;-79
2020/12/21 00:50:12;;;;;;;11.00;9.87;;;5.50;99.90;;;;;;5109669;28;20288;-80
2020/12/21 00:52:39;;;;;;;11.87;9.80;;;5.50;99.90;;;;;;5108889;28;20220;-79
2020/12/21 00:55:06;;;;;;;10.80;9.67;;;5.50;99.90;;;;;;5108651;28;20708;-80
2020/12/21 00:57:33;;;;;;;10.63;9.63;;;5.50;99.90;;;;;;5108535;28;20305;-80
2020/12/21 00:59:59;;;;;;;10.83;9.73;;;5.50;99.90;;;;;;5108738;28;20323;-79
2020/12/21 01:02:26;;;;;;;10.30;9.27;;;5.50;99.90;;;;;;5108981;28;20206;-80
2020/12/21 01:04:53;;;;;;;10.97;9.87;;;5.50;99.90;;;;;;5108992;28;20209;-80
2020/12/21 01:07:20;;;;;;;11.03;9.80;;;5.50;99.90;;;;;;5108656;28;20213;-80
2020/12/21 01:09:46;;;;;;;12.87;9.13;;;5.50;99.90;;;;;;5108638;28;20208;-80
2020/12/21 01:12:14;;;;;;;11.37;10.00;;;5.50;99.90;;;;;;5108958;28;20204;-80
2020/12/21 01:14:40;;;;;;;12.10;10.23;;;5.50;99.90;;;;;;5108919;28;20230;-80
2020/12/21 01:17:07;;;;;;;11.57;10.37;;;5.50;99.90;;;;;;5109089;28;20609;-80
2020/12/21 01:19:33;;;;;;;12.80;10.13;;;5.50;99.90;;;;;;5108832;28;20215;-81
2020/12/21 01:22:00;;;;;;;11.17;10.07;;;5.50;99.90;;;;;;5108675;28;20326;-80
2020/12/21 01:24:27;;;;;;;13.27;9.87;;;5.50;99.90;;;;;;5108422;28;20246;-78
2020/12/21 01:26:53;;;;;;;12.10;10.70;;;5.50;99.90;;;;;;5108669;28;20292;-79
2020/12/21 01:29:19;;;;;;;11.47;10.27;;;5.50;99.90;;;;;;5108853;28;20258;-79
2020/12/21 01:31:46;;;;;;;11.93;10.60;;;5.50;99.90;;;;;;5108656;28;20252;-79
2020/12/21 01:34:13;;;;;;;11.73;10.10;;;5.50;99.90;;;;;;5108524;28;20312;-79
2020/12/21 01:36:40;;;;;;;11.63;10.20;;;5.50;99.90;;;;;;5108743;28;20562;-80
2020/12/21 01:39:07;;;;;;;13.93;10.63;;;5.50;99.90;;;;;;5108574;28;20289;-79
2020/12/21 01:41:33;;;;;;;11.60;9.73;;;5.50;99.90;;;;;;5108362;28;20305;-79
2020/12/21 01:44:00;;;;;;;11.93;10.73;;;5.50;99.90;;;;;;5108574;28;20671;-85
2020/12/21 01:46:27;;;;;;;12.13;10.50;;;5.50;99.90;;;;;;5110087;28;20234;-85
2020/12/21 01:48:53;;;;;;;12.73;10.30;;;5.60;99.90;;;;;;5109796;28;20241;-84
2020/12/21 01:51:22;;;;;;;12.00;10.47;;;5.50;99.90;;;;;;5109971;28;20302;-85
2020/12/21 01:53:50;;;;;;;11.83;10.60;;;5.50;99.90;;;;;;5109374;28;20245;-84
2020/12/21 01:56:18;;;;;;;12.70;11.00;;;5.50;99.90;;;;;;5109787;28;20217;-85
2020/12/21 01:58:45;;;;;;;13.30;10.83;;;5.50;99.90;;;;;;5109800;28;20258;-84
2020/12/21 02:01:13;;;;;;;13.57;11.33;;;5.50;99.90;;;;;;5108672;28;20210;-80
2020/12/21 02:03:39;;;;;;;12.27;10.57;;;5.50;99.90;;;;;;5108679;28;20275;-80
2020/12/21 02:06:06;;;;;;;12.47;10.73;;;5.50;99.90;;;;;;5108172;28;20209;-80
2020/12/21 02:08:32;;;;;;;11.67;10.47;;;5.50;99.90;;;;;;5108448;28;20690;-81
2020/12/21 02:10:59;;;;;;;12.40;10.63;;;5.50;99.90;;;;;;5108834;28;20298;-81
2020/12/21 02:13:26;;;;;;;11.63;10.43;;;5.50;99.90;;;;;;5108108;28;20302;-82
2020/12/21 02:15:53;;;;;;;12.63;10.67;;;5.50;99.90;;;;;;5087997;28;20209;-80
2020/12/21 02:18:20;;;;;;;12.03;10.73;;;5.50;99.90;;;;;;5087778;28;20228;-79
2020/12/21 02:20:47;;;;;;;11.53;10.33;;;5.50;99.90;;;;;;5088409;28;20271;-81
2020/12/21 02:23:13;;;;;;;12.90;11.33;;;5.50;99.90;;;;;;5087985;28;20209;-81
2020/12/21 02:25:40;;;;;;;14.30;10.53;;;5.50;99.90;;;;;;5088205;28;20293;-80
2020/12/21 02:28:06;;;;;;;12.83;11.03;;;5.50;99.90;;;;;;5087845;28;20203;-81
2020/12/21 02:30:32;;;;;;;11.77;10.40;;;5.50;99.90;;;;;;5087760;28;20235;-80
2020/12/21 02:32:59;;;;;;;11.57;10.37;;;5.50;99.90;;;;;;5087620;28;20206;-80
2020/12/21 02:35:25;;;;;;;11.63;10.33;;;5.50;99.90;;;;;;5090064;28;20237;-80
2020/12/21 02:37:52;;;;;;;12.50;10.77;;;5.50;99.90;;;;;;5111742;28;20255;-81
2020/12/21 02:40:19;;;;;;;11.63;10.47;;;5.50;99.90;;;;;;5112333;28;20790;-80
2020/12/21 02:42:45;;;;;;;11.90;10.70;;;5.50;99.90;;;;;;5112105;28;20747;-81
2020/12/21 02:45:11;;;;;;;11.60;10.40;;;5.60;99.90;;;;;;5112090;28;20282;-82
2020/12/21 02:47:38;;;;;;;11.53;10.27;;;5.60;99.90;;;;;;5111972;28;20209;-82
2020/12/21 02:50:04;;;;;;;10.77;9.67;;;5.60;99.90;;;;;;5111746;27;20210;-80
2020/12/21 02:52:31;;;;;;;13.50;10.83;;;5.60;99.90;;;;;;5111701;28;20578;-79
2020/12/21 02:54:58;;;;;;;12.77;10.97;;;5.60;99.90;;;;;;5111032;28;20310;-78
2020/12/21 02:57:25;;;;;;;12.07;10.77;;;5.60;99.90;;;;;;5111008;28;20202;-79
2020/12/21 02:59:51;;;;;;;11.47;10.17;;;5.60;99.90;;;;;;5111411;28;20597;-81
2020/12/21 03:02:17;;;;;;;12.70;11.23;;;5.60;99.90;;;;;;5111054;28;20205;-83
2020/12/21 03:04:44;;;;;;;12.10;10.87;;;5.60;99.90;;;;;;5111654;28;20210;-83
2020/12/21 03:07:10;;;;;;;12.60;10.53;;;5.60;99.90;;;;;;5111239;28;20220;-82
2020/12/21 03:09:36;;;;;;;12.03;10.80;;;5.60;99.90;;;;;;5111268;28;20210;-83
2020/12/21 03:12:03;;;;;;;11.50;10.30;;;5.60;99.90;;;;;;5111316;28;20198;-84
2020/12/21 03:14:30;;;;;;;12.83;11.00;;;5.60;99.90;;;;;;5111504;28;20228;-84
2020/12/21 03:16:56;;;;;;;13.13;10.90;;;5.60;99.90;;;;;;5111410;28;20245;-84
2020/12/21 03:19:23;;;;;;;12.70;11.17;;;5.60;99.90;;;;;;5111498;28;20202;-84
2020/12/21 03:21:49;;;;;;;11.80;10.60;;;5.60;99.90;;;;;;5111716;28;20208;-81
2020/12/21 03:24:15;;;;;;;12.33;11.00;;;5.60;99.90;;;;;;5110783;28;20210;-81
2020/12/21 03:26:42;;;;;;;11.30;10.07;;;5.60;99.90;;;;;;5110881;28;20281;-81
2020/12/21 03:29:09;;;;;;;13.70;10.97;;;5.60;99.90;;;;;;5110328;28;20202;-81
2020/12/21 03:31:35;;;;;;;14.27;11.20;;;5.60;99.90;;;;;;5110642;28;20202;-81
2020/12/21 03:34:02;;;;;;;12.23;10.80;;;5.60;99.90;;;;;;5110735;28;20842;-81
2020/12/21 03:36:28;;;;;;;13.03;10.87;;;5.60;99.90;;;;;;5110527;28;20658;-81
2020/12/21 03:38:54;;;;;;;12.37;11.03;;;5.60;99.90;;;;;;5110429;28;20731;-82
2020/12/21 03:41:21;;;;;;;12.43;11.13;;;5.60;99.90;;;;;;5110489;28;20214;-81
2020/12/21 03:43:47;;;;;;;13.03;11.63;;;5.60;99.90;;;;;;5110632;28;20209;-83
2020/12/21 03:46:14;;;;;;;20.97;14.53;;;5.60;99.90;;;;;;5111406;28;20620;-83
2020/12/21 03:48:40;;;;;;;28.27;15.93;;;5.70;99.90;;;;;;5110990;28;20254;-84
2020/12/21 03:51:07;;;;;;;33.30;17.50;;;5.60;99.90;;;;;;5111682;27;20573;-84
2020/12/21 03:53:33;;;;;;;45.27;24.23;;;5.70;99.90;;;;;;5111501;28;20241;-84
2020/12/21 03:56:00;;;;;;;52.87;26.43;;;5.70;99.90;;;;;;5111488;28;20206;-86
2020/12/21 03:58:26;;;;;;;62.40;30.33;;;5.60;99.90;;;;;;5111066;28;20321;-84
2020/12/21 04:00:52;;;;;;;24.10;15.60;;;5.70;99.90;;;;;;5110784;28;20619;-81
2020/12/21 04:03:20;;;;;;;59.60;31.37;;;5.70;99.90;;;;;;5110342;28;20206;-81
2020/12/21 04:05:46;;;;;;;66.20;34.30;;;5.70;99.90;;;;;;5110307;28;20657;-82
2020/12/21 04:08:12;;;;;;;51.03;29.53;;;5.70;99.90;;;;;;5109919;28;20668;-81
2020/12/21 04:10:40;;;;;;;61.37;34.87;;;5.70;99.90;;;;;;5110063;28;20297;-79
2020/12/21 04:13:06;;;;;;;47.53;30.23;;;5.60;99.90;;;;;;5110146;27;20213;-79
2020/12/21 04:15:33;;;;;;;43.83;29.83;;;5.70;99.90;;;;;;5109961;28;20237;-79
2020/12/21 04:17:59;;;;;;;41.03;28.33;;;5.70;99.90;;;;;;5110054;28;20301;-82
2020/12/21 04:20:27;;;;;;;54.13;37.10;;;5.60;99.90;;;;;;5110030;28;20210;-80
2020/12/21 04:22:53;;;;;;;46.50;34.33;;;5.60;99.90;;;;;;5110080;28;20740;-81
2020/12/21 04:25:19;;;;;;;25.50;20.40;;;5.60;99.90;;;;;;5110072;27;20281;-80
2020/12/21 04:27:46;;;;;;;21.57;18.00;;;5.60;99.90;;;;;;5110056;28;20267;-81
2020/12/21 04:30:12;;;;;;;27.37;22.60;;;5.70;99.90;;;;;;5109981;28;20222;-81
2020/12/21 04:32:38;;;;;;;29.93;26.63;;;5.60;99.90;;;;;;5109723;28;20209;-81
2020/12/21 04:35:05;;;;;;;26.23;22.20;;;5.60;99.90;;;;;;5109993;28;20282;-80
2020/12/21 04:37:33;;;;;;;15.13;13.50;;;5.60;99.90;;;;;;5108854;28;20676;-81
2020/12/21 04:39:59;;;;;;;14.83;11.87;;;5.60;99.90;;;;;;5109931;28;20213;-81
2020/12/21 04:42:26;;;;;;;12.93;11.63;;;5.60;99.90;;;;;;5109393;28;20578;-80
2020/12/21 04:44:53;;;;;;;12.77;11.30;;;5.60;99.90;;;;;;5109711;28;20210;-79
2020/12/21 04:47:20;;;;;;;15.00;12.33;;;5.50;99.90;;;;;;5109592;28;20199;-79
2020/12/21 04:49:47;;;;;;;13.00;11.17;;;5.50;99.90;;;;;;5109682;28;20202;-79
2020/12/21 04:52:14;;;;;;;13.73;11.87;;;5.50;99.90;;;;;;5109119;28;20206;-81
2020/12/21 04:54:42;;;;;;;12.83;11.53;;;5.50;99.90;;;;;;5109108;28;20267;-81
2020/12/21 04:57:08;;;;;;;16.23;12.17;;;5.50;99.90;;;;;;5109431;28;20670;-81
2020/12/21 04:59:35;;;;;;;14.87;12.43;;;5.50;99.90;;;;;;5108956;28;20202;-81
2020/12/21 05:02:04;;;;;;;13.37;11.47;;;5.50;99.90;;;;;;5109165;28;20213;-81
2020/12/21 05:04:30;;;;;;;15.13;11.93;;;5.50;99.90;;;;;;5109078;28;20206;-82
2020/12/21 05:06:57;;;;;;;12.47;11.17;;;5.50;99.90;;;;;;5108920;28;20297;-80
2020/12/21 05:09:24;;;;;;;14.63;12.23;;;5.50;99.90;;;;;;5108739;28;20205;-81
2020/12/21 05:11:56;;;;;;;13.20;11.80;;;5.50;99.90;;;;;;5108821;28;20237;-79
2020/12/21 05:14:31;;;;;;;14.03;11.17;;;5.50;99.90;;;;;;5108731;28;20226;-79
2020/12/21 05:17:12;;;;;;;14.03;11.67;;;5.50;99.90;;;;;;5109038;28;20190;-80
2020/12/21 05:19:38;;;;;;;15.60;11.80;;;5.50;99.90;;;;;;5109113;28;20198;-79
2020/12/21 05:22:10;;;;;;;12.50;11.20;;;5.40;99.90;;;;;;5108853;28;20274;-80
2020/12/21 05:24:36;;;;;;;11.97;10.67;;;5.50;99.90;;;;;;5108790;28;20209;-80
2020/12/21 05:27:13;;;;;;;13.37;11.93;;;5.50;99.90;;;;;;5109023;28;20285;-80
2020/12/21 05:29:39;;;;;;;13.87;11.13;;;5.50;99.90;;;;;;5108629;28;20225;-79
2020/12/21 05:32:06;;;;;;;15.47;12.30;;;5.50;99.90;;;;;;5108738;28;20206;-79
2020/12/21 05:34:32;;;;;;;15.27;12.67;;;5.50;99.90;;;;;;5108646;28;20226;-81
2020/12/21 05:37:10;;;;;;;14.07;12.23;;;5.40;99.90;;;;;;5108476;28;20328;-81
2020/12/21 05:39:47;;;;;;;13.70;12.17;;;5.40;99.90;;;;;;5108786;28;20193;-81
2020/12/21 05:42:14;;;;;;;14.00;11.83;;;5.40;99.90;;;;;;5108794;28;20197;-82
2020/12/21 05:44:51;;;;;;;14.50;11.53;;;5.40;99.90;;;;;;5108594;28;20316;-81
2020/12/21 05:47:17;;;;;;;13.00;11.47;;;5.40;99.90;;;;;;5108322;28;20198;-81
2020/12/21 05:49:52;;;;;;;15.57;11.90;;;5.40;99.90;;;;;;5108558;28;20202;-81
2020/12/21 05:52:27;;;;;;;15.30;12.00;;;5.40;99.90;;;;;;5108166;28;20674;-81
2020/12/21 05:54:54;;;;;;;15.10;12.07;;;5.40;99.90;;;;;;5108405;28;20292;-81
2020/12/21 05:57:21;;;;;;;13.97;12.13;;;5.30;99.90;;;;;;5108662;28;20198;-80
2020/12/21 05:59:49;;;;;;;14.73;11.70;;;5.40;99.90;;;;;;5108457;28;20206;-81
2020/12/21 06:02:17;;;;;;;13.97;11.83;;;5.30;99.90;;;;;;5108222;28;20201;-81
2020/12/21 06:04:48;;;;;;;15.83;12.60;;;5.30;99.90;;;;;;5108508;28;20437;-81
2020/12/21 06:07:22;;;;;;;14.67;11.83;;;5.30;99.90;;;;;;5108465;28;20209;-80
2020/12/21 06:09:51;;;;;;;13.10;11.70;;;5.30;99.90;;;;;;5108518;28;20194;-81
2020/12/21 06:12:21;;;;;;;13.57;11.23;;;5.30;99.90;;;;;;5111099;28;20210;-79
2020/12/21 06:14:50;;;;;;;14.07;11.97;;;5.30;99.90;;;;;;5112348;28;20599;-80
2020/12/21 06:17:17;;;;;;;15.17;12.03;;;5.30;99.90;;;;;;5112517;27;20811;-81
2020/12/21 06:19:45;;;;;;;13.23;11.83;;;5.30;99.90;;;;;;5112079;28;20680;-81
2020/12/21 06:22:11;;;;;;;12.67;11.30;;;5.30;99.90;;;;;;5111898;28;20305;-81
2020/12/21 06:24:38;;;;;;;13.67;12.17;;;5.20;99.90;;;;;;5112215;28;20296;-83
2020/12/21 06:27:16;;;;;;;15.73;12.37;;;5.20;99.90;;;;;;5112289;28;20206;-82
2020/12/21 06:29:43;;;;;;;14.60;11.87;;;5.20;99.90;;;;;;5112362;28;20589;-82
2020/12/21 06:32:10;;;;;;;14.87;11.80;;;5.20;99.90;;;;;;5112194;28;20202;-81
2020/12/21 06:34:39;;;;;;;14.37;11.90;;;5.20;99.90;;;;;;5111960;28;20343;-83
2020/12/21 06:37:07;;;;;;;13.80;11.87;;;5.20;99.90;;;;;;5112089;28;20209;-82
2020/12/21 06:39:34;;;;;;;13.57;11.77;;;5.20;99.90;;;;;;5111686;28;20665;-80
2020/12/21 06:42:05;;;;;;;11.87;10.63;;;5.20;99.90;;;;;;5111521;28;20224;-81
2020/12/21 06:44:33;;;;;;;12.90;11.17;;;5.10;99.90;;;;;;5111204;28;20571;-81
2020/12/21 06:47:00;;;;;;;13.50;11.80;;;5.10;99.90;;;;;;5111828;28;20269;-81
2020/12/21 06:49:27;;;;;;;13.67;11.30;;;5.10;99.90;;;;;;5111255;28;20750;-84
2020/12/21 06:51:54;;;;;;;17.17;11.57;;;5.10;99.90;;;;;;5112841;28;20629;-85
2020/12/21 06:54:20;;;;;;;11.83;10.43;;;5.10;99.90;;;;;;5111990;28;20597;-81
2020/12/21 06:56:48;;;;;;;15.37;11.13;;;5.10;99.90;;;;;;5111420;28;20552;-81
2020/12/21 06:59:16;;;;;;;12.43;10.90;;;5.10;99.90;;;;;;5111724;28;20205;-81
2020/12/21 07:01:44;;;;;;;13.57;10.77;;;5.00;99.90;;;;;;5111752;28;20289;-82
2020/12/21 07:04:12;;;;;;;12.70;11.17;;;5.00;99.90;;;;;;5111284;28;20202;-81
2020/12/21 07:06:39;;;;;;;11.80;10.60;;;5.00;99.90;;;;;;5111346;28;20687;-82
2020/12/21 07:09:06;;;;;;;12.67;10.33;;;5.00;99.90;;;;;;5111267;28;20680;-82
2020/12/21 07:11:32;;;;;;;12.43;10.73;;;5.00;99.90;;;;;;5111033;28;20637;-82
2020/12/21 07:13:59;;;;;;;12.20;10.70;;;5.00;99.90;;;;;;5110752;28;20232;-82
2020/12/21 07:16:26;;;;;;;11.03;9.93;;;5.00;99.90;;;;;;5110763;28;20204;-81
2020/12/21 07:18:53;;;;;;;13.53;10.60;;;5.00;99.90;;;;;;5111156;28;20215;-82
2020/12/21 07:21:20;;;;;;;11.70;10.50;;;5.00;99.90;;;;;;5111095;28;20213;-81
2020/12/21 07:23:46;;;;;;;11.50;10.30;;;5.00;99.90;;;;;;5110347;28;20212;-81
2020/12/21 07:26:14;;;;;;;11.67;9.90;;;4.90;99.90;;;;;;5110991;28;20293;-81
2020/12/21 07:28:44;;;;;;;14.73;10.37;;;4.90;99.90;;;;;;5110754;28;20262;-82
2020/12/21 07:31:13;;;;;;;13.17;10.77;;;4.90;99.90;;;;;;5110651;28;20728;-81
2020/12/21 07:33:54;;;;;;;12.07;10.13;;;5.00;99.90;;;;;;5110322;28;20206;-81
2020/12/21 07:36:23;;;;;;;12.07;10.40;;;5.00;99.90;;;;;;5111039;28;20206;-81
2020/12/21 07:38:50;;;;;;;12.97;10.43;;;5.00;99.90;;;;;;5110438;28;20209;-81
2020/12/21 07:41:23;;;;;;;11.87;9.90;;;4.90;99.90;;;;;;5110596;28;20198;-81
2020/12/21 07:43:58;;;;;;;11.93;10.00;;;5.00;99.90;;;;;;5110837;28;20263;-82
2020/12/21 07:46:26;;;;;;;11.43;9.50;;;5.00;99.90;;;;;;5110674;28;20964;-83
2020/12/21 07:48:55;;;;;;;11.40;10.03;;;5.00;99.90;;;;;;5110820;28;20206;-82
2020/12/21 07:51:24;;;;;;;12.93;10.13;;;5.00;99.90;;;;;;5110750;28;20292;-83
2020/12/21 07:53:51;;;;;;;32.27;17.47;;;5.00;99.90;;;;;;5110205;28;20712;-83
2020/12/21 07:56:18;;;;;;;12.97;11.40;;;5.00;99.90;;;;;;5110711;28;20317;-84
2020/12/21 07:58:45;;;;;;;19.20;12.67;;;5.00;99.90;;;;;;5110233;28;20204;-83
2020/12/21 08:01:12;;;;;;;17.73;12.53;;;5.10;99.90;;;;;;5110316;28;20202;-78
2020/12/21 08:03:40;;;;;;;18.37;13.30;;;5.10;99.90;;;;;;5110192;28;20340;-79
2020/12/21 08:06:11;;;;;;;15.17;11.27;;;5.10;99.90;;;;;;5110342;28;20210;-79
2020/12/21 08:08:39;;;;;;;16.67;12.67;;;5.10;99.90;;;;;;5109800;28;20281;-81
2020/12/21 08:11:11;;;;;;;15.37;11.30;;;5.10;99.90;;;;;;5110269;28;20274;-82
2020/12/21 08:13:37;;;;;;;13.17;10.83;;;5.10;99.90;;;;;;5097767;28;20190;-79
2020/12/21 08:16:08;;;;;;;14.40;10.37;;;5.10;99.90;;;;;;5105699;28;20218;-82
2020/12/21 08:18:34;;;;;;;15.30;11.27;;;5.00;99.90;;;;;;5102766;28;20721;-83
2020/12/21 08:21:01;;;;;;;14.13;11.43;;;5.10;99.90;;;;;;5102525;28;20358;-82
2020/12/21 08:23:28;;;;;;;14.63;11.43;;;5.20;99.90;;;;;;5108899;28;20292;-82
2020/12/21 08:25:56;;;;;;;14.87;12.10;;;5.20;99.90;;;;;;5097323;28;20210;-82
2020/12/21 08:28:31;;;;;;;13.13;10.90;;;5.20;99.90;;;;;;5085020;28;20209;-82
2020/12/21 08:31:11;;;;;;;18.23;10.77;;;5.20;99.90;;;;;;5085589;28;20239;-82
2020/12/21 08:33:41;;;;;;;16.23;12.53;;;5.20;99.90;;;;;;5083251;28;20195;-82
2020/12/21 08:36:19;;;;;;;17.37;11.87;;;5.10;99.90;;;;;;5093953;28;20256;-82
2020/12/21 08:38:46;;;;;;;14.47;10.87;;;5.10;99.90;;;;;;5105490;28;20213;-82
2020/12/21 08:41:13;;;;;;;15.90;11.53;;;5.20;99.90;;;;;;5105579;28;20850;-81
2020/12/21 08:43:40;;;;;;;16.07;12.93;;;5.20;99.90;;;;;;5098737;28;20692;-83
2020/12/21 08:46:08;;;;;;;14.13;11.60;;;5.20;99.90;;;;;;5093758;28;20206;-82
2020/12/21 08:48:40;;;;;;;12.77;10.57;;;5.30;99.90;;;;;;5094812;28;20244;-82
2020/12/21 08:51:07;;;;;;;13.60;10.37;;;5.40;99.90;;;;;;5097551;28;20195;-82
2020/12/21 08:53:33;;;;;;;12.93;11.60;;;5.40;99.90;;;;;;5094909;28;20676;-83
2020/12/21 08:56:00;;;;;;;19.40;15.63;;;5.50;99.90;;;;;;5094968;28;20696;-82
2020/12/21 08:58:27;;;;;;;12.00;10.07;;;5.60;99.90;;;;;;5094076;28;20199;-82
2020/12/21 09:00:53;;;;;;;11.43;10.07;;;5.60;99.90;;;;;;5086989;28;20313;-82
2020/12/21 09:03:20;;;;;;;11.50;10.27;;;5.70;99.90;;;;;;5085248;28;20302;-82
2020/12/21 09:05:46;;;;;;;10.87;9.33;;;5.70;99.90;;;;;;5090680;28;20619;-83
2020/12/21 09:08:13;;;;;;;11.13;9.20;;;5.70;99.90;;;;;;5105642;28;20661;-83
2020/12/21 09:10:41;;;;;;;10.33;9.20;;;5.80;99.90;;;;;;5105510;27;20683;-83
2020/12/21 09:13:07;;;;;;;12.37;9.17;;;5.80;99.90;;;;;;5104883;28;20822;-82
2020/12/21 09:15:35;;;;;;;11.00;9.33;;;5.80;99.90;;;;;;5105266;28;20337;-81
2020/12/21 09:18:02;;;;;;;9.93;8.83;;;5.90;99.90;;;;;;5105241;28;20254;-82
2020/12/21 09:20:28;;;;;;;11.97;9.53;;;5.90;99.90;;;;;;5090161;28;20393;-82
2020/12/21 09:22:55;;;;;;;12.20;9.27;;;5.90;99.90;;;;;;5084948;28;20203;-83
2020/12/21 09:25:21;;;;;;;9.47;8.53;;;5.90;99.90;;;;;;5087666;28;20203;-85
2020/12/21 09:27:48;;;;;;;11.33;8.77;;;6.00;99.90;;;;;;5098845;28;20213;-83
2020/12/21 09:30:14;;;;;;;13.60;10.23;;;6.00;99.90;;;;;;5104609;28;20743;-83
2020/12/21 09:32:42;;;;;;;11.37;10.23;;;6.10;99.90;;;;;;5104942;28;20626;-82
2020/12/21 09:35:08;;;;;;;12.27;10.07;;;6.10;99.90;;;;;;5104743;28;20673;-82
2020/12/21 09:37:34;;;;;;;13.20;9.47;;;6.10;99.90;;;;;;5105442;28;20221;-82
2020/12/21 09:40:01;;;;;;;10.00;9.00;;;6.20;99.90;;;;;;5104991;28;20528;-82
2020/12/21 09:42:27;;;;;;;10.33;9.17;;;6.20;99.90;;;;;;5104645;28;20289;-82
2020/12/21 09:44:54;;;;;;;12.57;10.20;;;6.20;99.90;;;;;;5100613;28;20233;-80
2020/12/21 09:47:20;;;;;;;11.83;9.57;;;6.30;99.90;;;;;;5095755;28;20209;-82
2020/12/21 09:49:47;;;;;;;12.40;8.93;;;6.30;99.90;;;;;;5091971;28;20293;-81
2020/12/21 09:52:14;;;;;;;10.07;8.87;;;6.40;99.90;;;;;;5092600;28;20229;-82
2020/12/21 09:54:40;;;;;;;9.97;8.97;;;6.40;99.90;;;;;;5091973;28;20246;-83
2020/12/21 09:57:06;;;;;;;10.10;8.03;;;6.40;99.90;;;;;;5092835;28;20203;-83
2020/12/21 09:59:32;;;;;;;10.57;8.73;;;6.40;99.90;;;;;;5092721;28;20209;-82
2020/12/21 10:01:59;;;;;;;9.43;8.40;;;6.40;99.90;;;;;;5092710;28;20210;-83
2020/12/21 10:04:26;;;;;;;10.33;9.20;;;6.40;99.90;;;;;;5093944;28;20293;-82
2020/12/21 10:06:53;;;;;;;11.57;9.30;;;6.50;99.90;;;;;;5107319;28;20210;-81
2020/12/21 10:09:20;;;;;;;10.57;8.20;;;6.50;99.90;;;;;;5112941;28;20289;-82
2020/12/21 10:11:46;;;;;;;9.30;8.23;;;6.60;99.90;;;;;;5112429;28;20653;-81
2020/12/21 10:14:13;;;;;;;9.33;8.43;;;6.60;99.90;;;;;;5112770;28;20220;-84
2020/12/21 10:16:39;;;;;;;10.43;8.17;;;6.70;99.90;;;;;;5113058;27;20237;-82
2020/12/21 10:19:05;;;;;;;8.90;7.97;;;6.70;99.90;;;;;;5112991;28;20304;-82
2020/12/21 10:21:32;;;;;;;9.80;8.13;;;6.80;99.90;;;;;;5112549;28;20205;-81
2020/12/21 10:23:59;;;;;;;10.33;8.23;;;6.90;99.90;;;;;;5111950;28;20210;-81
2020/12/21 10:26:26;;;;;;;10.13;8.50;;;7.00;99.90;;;;;;5112489;28;20617;-81
2020/12/21 10:28:52;;;;;;;12.37;8.53;;;7.10;99.90;;;;;;5112296;28;20232;-82
2020/12/21 10:31:18;;;;;;;9.80;7.87;;;7.20;99.90;;;;;;5112267;28;20206;-81
2020/12/21 10:33:45;;;;;;;9.20;8.30;;;7.20;99.90;;;;;;5112229;28;20206;-81
2020/12/21 10:36:15;;;;;;;9.33;8.50;;;7.20;99.90;;;;;;5111752;28;20708;-81
2020/12/21 10:38:42;;;;;;;10.00;8.87;;;7.20;99.90;;;;;;5111903;28;20271;-81
2020/12/21 10:41:09;;;;;;;8.77;7.97;;;7.20;99.90;;;;;;5111904;28;20213;-81
2020/12/21 10:43:35;;;;;;;8.07;7.27;;;7.20;99.90;;;;;;5111579;28;20661;-81
2020/12/21 10:46:02;;;;;;;8.23;7.40;;;7.20;99.90;;;;;;5111706;28;20694;-81
2020/12/21 10:48:28;;;;;;;9.13;7.47;;;7.30;99.90;;;;;;5111360;27;20212;-81
2020/12/21 10:50:55;;;;;;;8.57;7.07;;;7.40;99.90;;;;;;5111531;28;20297;-81
2020/12/21 10:53:22;;;;;;;9.13;8.20;;;7.50;99.90;;;;;;5111160;28;20242;-81
2020/12/21 10:55:48;;;;;;;8.77;7.73;;;7.50;99.90;;;;;;5111498;28;20240;-82
2020/12/21 10:58:16;;;;;;;7.97;7.17;;;7.50;99.90;;;;;;5110457;28;20800;-82
2020/12/21 11:00:42;;;;;;;8.07;7.27;;;7.60;99.90;;;;;;5111168;27;20305;-82
2020/12/21 11:03:08;;;;;;;7.83;7.13;;;7.60;99.90;;;;;;5111369;28;20701;-81
2020/12/21 11:05:35;;;;;;;8.23;7.30;;;7.70;99.90;;;;;;5111134;28;20579;-82
2020/12/21 11:08:01;;;;;;;8.33;6.87;;;7.70;99.90;;;;;;5110834;28;20743;-82
2020/12/21 11:10:28;;;;;;;9.63;7.73;;;7.80;99.90;;;;;;5110874;28;20297;-82
2020/12/21 11:12:54;;;;;;;7.30;6.60;;;7.90;99.90;;;;;;5110908;28;20216;-82
2020/12/21 11:15:22;;;;;;;8.13;7.07;;;7.90;99.90;;;;;;5111091;28;20231;-82
2020/12/21 11:17:48;;;;;;;9.57;7.50;;;8.00;99.90;;;;;;5110980;28;20202;-82
2020/12/21 11:20:15;;;;;;;7.57;6.87;;;8.00;99.90;;;;;;5110862;28;20240;-82
2020/12/21 11:22:43;;;;;;;9.80;7.43;;;8.00;99.90;;;;;;5110779;28;20649;-82
2020/12/21 11:25:10;;;;;;;8.50;7.23;;;8.10;99.90;;;;;;5110886;28;20258;-82
2020/12/21 11:27:37;;;;;;;7.30;6.60;;;8.10;99.90;;;;;;5111129;28;20205;-82
2020/12/21 11:30:04;;;;;;;8.20;6.80;;;8.20;99.90;;;;;;5110892;28;20229;-82
2020/12/21 11:32:31;;;;;;;9.57;6.93;;;8.20;99.90;;;;;;5110627;28;20206;-81
2020/12/21 11:34:58;;;;;;;7.43;6.63;;;8.20;99.90;;;;;;5110940;28;20312;-82
2020/12/21 11:37:24;;;;;;;8.23;6.63;;;8.30;99.90;;;;;;5109956;28;20577;-82
2020/12/21 11:39:51;;;;;;;7.63;6.83;;;8.30;99.90;;;;;;5110435;28;20202;-82
2020/12/21 11:42:17;;;;;;;7.30;6.60;;;8.30;99.90;;;;;;5110835;28;20207;-82
2020/12/21 11:44:44;;;;;;;7.43;6.77;;;8.40;99.90;;;;;;5103147;28;20199;-82
2020/12/21 11:47:11;;;;;;;7.00;6.27;;;8.50;99.90;;;;;;5103633;28;20205;-82
2020/12/21 11:49:38;;;;;;;8.57;6.60;;;8.50;99.90;;;;;;5110325;28;20233;-80
2020/12/21 11:52:05;;;;;;;7.23;6.47;;;8.40;99.90;;;;;;5110621;27;20206;-81
2020/12/21 11:54:32;;;;;;;8.73;7.40;;;8.30;99.90;;;;;;5109811;28;20720;-80
2020/12/21 11:56:58;;;;;;;7.67;6.37;;;8.30;99.90;;;;;;5110613;28;20284;-81
2020/12/21 11:59:24;;;;;;;7.13;6.43;;;8.20;99.90;;;;;;5110034;28;20238;-80
2020/12/21 12:01:56;;;;;;;7.30;6.37;;;8.10;99.90;;;;;;5109813;28;20732;-80
2020/12/21 12:04:22;;;;;;;7.33;6.63;;;8.00;99.90;;;;;;5110023;28;20194;-80
2020/12/21 12:06:52;;;;;;;11.80;10.60;;;8.00;99.90;;;;;;5102704;27;20293;-82
2020/12/21 12:09:18;;;;;;;8.80;7.97;;;8.00;99.90;;;;;;5099861;28;20241;-81
2020/12/21 12:11:45;;;;;;;7.83;7.13;;;8.00;99.90;;;;;;5097798;28;20282;-79
2020/12/21 12:14:12;;;;;;;8.00;6.10;;;8.00;99.90;;;;;;5091089;28;20203;-79
2020/12/21 12:16:39;;;;;;;7.67;6.17;;;8.00;99.90;;;;;;5088551;28;20206;-80
2020/12/21 12:19:05;;;;;;;7.47;6.43;;;8.00;99.90;;;;;;5088937;28;20306;-79
2020/12/21 12:21:31;;;;;;;7.30;6.60;;;7.90;99.90;;;;;;5089308;28;20203;-80
2020/12/21 12:23:59;;;;;;;6.70;6.10;;;7.90;99.90;;;;;;5107037;28;20289;-80
2020/12/21 12:26:26;;;;;;;6.33;5.73;;;7.90;99.90;;;;;;5106029;28;20534;-79
2020/12/21 12:28:54;;;;;;;6.77;6.20;;;7.80;99.90;;;;;;5087434;28;20276;-80
2020/12/21 12:31:21;;;;;;;7.60;6.80;;;7.80;99.90;;;;;;5087512;28;20207;-79
2020/12/21 12:33:48;;;;;;;7.23;6.50;;;7.90;99.90;;;;;;5087477;28;20670;-79
2020/12/21 12:36:16;;;;;;;7.97;6.90;;;8.00;99.90;;;;;;5097052;28;20234;-80
2020/12/21 12:38:43;;;;;;;6.87;6.27;;;8.20;99.90;;;;;;5107400;28;20305;-80
2020/12/21 12:41:10;;;;;;;7.40;5.93;;;8.30;99.90;;;;;;5107639;28;20210;-80
2020/12/21 12:43:37;;;;;;;12.43;9.57;;;8.30;99.90;;;;;;5107537;28;20202;-79